createdAt,value
2022-08-17T00:00:10.221Z,77.90
2022-08-17T00:03:01.272Z,78.10
2022-08-17T00:05:38.763Z,78.40
2022-08-17T00:08:06.341Z,78.70
2022-08-17T00:10:33.609Z,78.50
2022-08-17T00:13:05.159Z,78.20
2022-08-17T00:15:32.479Z,78.20
2022-08-17T00:17:59.622Z,78.50
2022-08-17T00:20:30.459Z,78.70
2022-08-17T00:23:09.815Z,79.00
2022-08-17T00:25:37.261Z,79.40
2022-08-17T00:28:04.543Z,79.70
2022-08-17T00:30:53.235Z,79.60
2022-08-17T00:33:23.827Z,79.40
2022-08-17T00:35:51.879Z,78.90
2022-08-17T00:38:19.350Z,78.80
2022-08-17T00:40:58.994Z,79.10
2022-08-17T00:43:32.702Z,79.70
2022-08-17T00:46:02.672Z,80.60
2022-08-17T00:48:31.046Z,80.90
2022-08-17T00:51:44.202Z,81.20
2022-08-17T00:54:24.058Z,81.80
2022-08-17T00:56:56.920Z,81.80
2022-08-17T00:59:28.041Z,81.60
2022-08-17T01:01:55.792Z,81.50
2022-08-17T01:04:23.802Z,81.90
2022-08-17T01:06:55.200Z,82.20
2022-08-17T01:09:22.661Z,82.30
2022-08-17T01:11:52.281Z,82.00
2022-08-17T01:14:21.956Z,81.60
2022-08-17T01:16:51.390Z,81.40
2022-08-17T01:19:26.296Z,81.40
2022-08-17T01:22:28.974Z,82.10
2022-08-17T01:25:04.154Z,81.70
2022-08-17T01:27:31.763Z,81.90
2022-08-17T01:30:03.543Z,81.90
2022-08-17T01:32:30.961Z,82.20
2022-08-17T01:35:00.979Z,82.40
2022-08-17T01:37:34.673Z,83.30
2022-08-17T01:40:19.092Z,83.80
2022-08-17T01:42:52.119Z,83.80
2022-08-17T01:45:24.490Z,83.80
2022-08-17T01:47:52.761Z,83.90
2022-08-17T01:50:30.454Z,84.00
2022-08-17T01:53:04.650Z,84.20
2022-08-17T01:55:45.833Z,84.00
2022-08-17T01:58:13.364Z,83.90
2022-08-17T02:00:46.805Z,83.40
2022-08-17T02:03:27.455Z,83.30
2022-08-17T02:05:54.827Z,83.50
2022-08-17T02:08:39.268Z,83.70
2022-08-17T02:11:14.744Z,83.70
2022-08-17T02:13:43.049Z,83.60
2022-08-17T02:16:10.187Z,83.50
2022-08-17T02:18:37.860Z,83.30
2022-08-17T02:21:05.351Z,83.20
2022-08-17T02:23:35.651Z,83.20
2022-08-17T02:26:02.931Z,83.10
2022-08-17T02:28:30.301Z,83.10
2022-08-17T02:31:01.794Z,83.00
2022-08-17T02:33:42.934Z,83.00
2022-08-17T02:36:12.987Z,83.00
2022-08-17T02:38:41.238Z,83.00
2022-08-17T02:41:09.022Z,83.00
2022-08-17T02:43:36.141Z,83.00
2022-08-17T02:46:03.585Z,82.90
2022-08-17T02:48:32.063Z,82.90
2022-08-17T02:51:00.653Z,82.90
2022-08-17T02:53:35.806Z,82.90
2022-08-17T02:56:07.079Z,82.70
2022-08-17T02:58:35.815Z,82.80
2022-08-17T03:01:06.368Z,82.80
2022-08-17T03:03:34.422Z,83.00
2022-08-17T03:06:01.911Z,82.90
2022-08-17T03:08:29.321Z,83.00
2022-08-17T03:10:56.661Z,83.00
2022-08-17T03:13:27.636Z,83.10
2022-08-17T03:15:54.770Z,83.10
2022-08-17T03:18:25.380Z,83.20
2022-08-17T03:21:00.099Z,83.30
2022-08-17T03:23:29.505Z,83.30
2022-08-17T03:25:57.450Z,83.40
2022-08-17T03:28:25.626Z,83.50
2022-08-17T03:30:52.953Z,83.50
2022-08-17T03:33:20.351Z,83.60
2022-08-17T03:35:47.849Z,83.70
2022-08-17T03:38:17.401Z,83.80
2022-08-17T03:40:56.729Z,83.90
2022-08-17T03:43:28.814Z,84.00
2022-08-17T03:46:34.045Z,84.10
2022-08-17T03:49:21.188Z,84.20
2022-08-17T03:52:06.897Z,84.30
2022-08-17T03:54:52.515Z,85.10
2022-08-17T03:57:20.211Z,84.50
2022-08-17T03:59:48.008Z,84.70
2022-08-17T04:02:24.908Z,84.90
2022-08-17T04:04:52.616Z,85.10
2022-08-17T04:07:25.444Z,85.20
2022-08-17T04:09:52.614Z,85.50
2022-08-17T04:12:22.104Z,85.50
2022-08-17T04:14:51.823Z,85.70
2022-08-17T04:17:27.727Z,85.70
2022-08-17T04:19:56.120Z,85.80
2022-08-17T04:22:31.045Z,85.80
2022-08-17T04:25:15.317Z,85.70
2022-08-17T04:27:42.439Z,85.80
2022-08-17T04:30:10.420Z,85.80
2022-08-17T04:33:06.075Z,85.80
2022-08-17T04:35:40.861Z,85.90
2022-08-17T04:38:10.520Z,85.90
2022-08-17T04:40:56.831Z,85.90
2022-08-17T04:43:27.256Z,86.00
2022-08-17T04:46:00.342Z,86.10
2022-08-17T04:48:40.405Z,86.10
2022-08-17T04:51:15.040Z,86.10
2022-08-17T04:53:45.802Z,86.10
2022-08-17T04:56:21.747Z,86.00
2022-08-17T04:58:52.814Z,85.80
2022-08-17T05:01:23.995Z,85.80
2022-08-17T05:03:57.385Z,85.70
2022-08-17T05:06:25.395Z,85.60
2022-08-17T05:08:53.799Z,85.60
2022-08-17T05:11:26.836Z,85.60
2022-08-17T05:13:55.085Z,85.50
2022-08-17T05:16:24.122Z,85.50
2022-08-17T05:18:52.393Z,85.40
2022-08-17T05:21:21.640Z,85.30
2022-08-17T05:23:54.962Z,85.10
2022-08-17T05:26:27.404Z,84.70
2022-08-17T05:28:59.602Z,83.20
2022-08-17T05:31:29.459Z,81.50
2022-08-17T05:33:56.880Z,79.90
2022-08-17T05:36:43.212Z,78.20
2022-08-17T05:39:15.990Z,76.80
2022-08-17T05:41:46.808Z,75.10
2022-08-17T05:44:14.074Z,73.90
2022-08-17T05:46:45.830Z,72.90
2022-08-17T05:49:15.119Z,71.90
2022-08-17T05:52:04.202Z,71.40
2022-08-17T05:54:57.938Z,70.80
2022-08-17T05:57:39.601Z,70.30
2022-08-17T06:00:19.306Z,69.80
2022-08-17T06:02:56.818Z,69.70
2022-08-17T06:05:46.064Z,69.40
2022-08-17T06:08:24.581Z,68.60
2022-08-17T06:11:04.228Z,67.90
2022-08-17T06:14:03.292Z,67.30
2022-08-17T06:16:39.284Z,66.80
2022-08-17T06:19:16.427Z,66.50
2022-08-17T06:21:48.964Z,66.30
2022-08-17T06:24:27.574Z,66.60
2022-08-17T06:27:00.313Z,66.30
2022-08-17T06:29:59.303Z,66.30
2022-08-17T06:32:26.893Z,66.30
2022-08-17T06:34:54.550Z,66.40
2022-08-17T06:37:44.407Z,66.20
2022-08-17T06:40:45.939Z,66.40
2022-08-17T06:43:25.413Z,66.80
2022-08-17T06:46:06.746Z,67.10
2022-08-17T06:49:07.465Z,67.40
2022-08-17T06:51:47.997Z,68.20
2022-08-17T06:54:23.700Z,69.40
2022-08-17T06:57:18.855Z,72.60
2022-08-17T07:00:01.721Z,74.50
2022-08-17T07:03:02.326Z,75.00
2022-08-17T07:05:34.405Z,75.00
2022-08-17T07:08:18.928Z,75.10
2022-08-17T07:11:01.656Z,75.80
2022-08-17T07:13:42.138Z,75.80
2022-08-17T07:16:36.518Z,75.80
2022-08-17T07:19:06.157Z,75.70
2022-08-17T07:21:55.489Z,77.00
2022-08-17T07:24:31.671Z,77.50
2022-08-17T07:27:28.489Z,76.40
2022-08-17T07:30:11.178Z,75.50
2022-08-17T07:33:00.628Z,74.30
2022-08-17T07:35:37.792Z,74.00
2022-08-17T07:38:24.294Z,73.20
2022-08-17T07:41:01.276Z,73.50
2022-08-17T07:43:31.144Z,73.50
2022-08-17T07:46:37.990Z,73.20
2022-08-17T07:49:07.761Z,72.30
2022-08-17T07:52:48.063Z,72.00
2022-08-17T07:54:50.932Z,72.10
2022-08-17T07:57:26.645Z,71.60
2022-08-17T07:59:59.986Z,71.60
2022-08-17T08:02:39.136Z,71.40
2022-08-17T08:05:48.781Z,71.70
2022-08-17T08:08:46.552Z,71.50
2022-08-17T08:11:28.173Z,71.20
2022-08-17T08:13:55.610Z,70.60
2022-08-17T08:16:27.635Z,69.50
2022-08-17T08:18:58.587Z,69.10
2022-08-17T08:21:51.463Z,68.80
2022-08-17T08:24:49.605Z,68.40
2022-08-17T08:27:46.101Z,68.90
2022-08-17T08:30:21.475Z,68.70
2022-08-17T08:32:51.368Z,67.20
2022-08-17T08:35:32.921Z,67.20
2022-08-17T08:38:03.165Z,66.60
2022-08-17T08:40:51.920Z,65.20
2022-08-17T08:43:40.675Z,64.80
2022-08-17T08:46:23.047Z,64.30
2022-08-17T08:49:06.548Z,65.30
2022-08-17T08:51:48.314Z,64.70
2022-08-17T08:54:42.896Z,65.20
2022-08-17T08:57:25.453Z,64.70
2022-08-17T09:00:01.488Z,63.40
2022-08-17T09:02:56.271Z,62.90
2022-08-17T09:05:58.073Z,62.90
2022-08-17T09:09:04.533Z,62.10
2022-08-17T09:12:01.856Z,61.50
2022-08-17T09:14:44.881Z,61.30
2022-08-17T09:17:28.329Z,61.50
2022-08-17T09:20:28.142Z,61.80
2022-08-17T09:23:19.410Z,61.00
2022-08-17T09:25:51.472Z,60.30
2022-08-17T09:28:33.163Z,59.80
2022-08-17T09:31:08.020Z,58.20
2022-08-17T09:33:40.512Z,58.20
2022-08-17T09:36:26.153Z,57.70
2022-08-17T09:39:02.380Z,58.10
2022-08-17T09:41:48.666Z,58.30
2022-08-17T09:44:39.976Z,57.90
2022-08-17T09:47:21.904Z,57.60
2022-08-17T09:50:01.691Z,57.70
2022-08-17T09:52:30.717Z,56.20
2022-08-17T09:55:00.160Z,55.60
2022-08-17T09:57:46.240Z,54.60
2022-08-17T10:00:27.660Z,55.00
2022-08-17T10:03:26.089Z,55.40
2022-08-17T10:06:00.257Z,55.40
2022-08-17T10:08:48.036Z,55.30
2022-08-17T10:11:33.327Z,53.70
2022-08-17T10:14:36.050Z,53.30
2022-08-17T10:17:38.928Z,52.50
2022-08-17T10:21:13.685Z,51.30
2022-08-17T10:24:00.841Z,51.50
2022-08-17T10:26:55.681Z,52.40
2022-08-17T10:29:49.035Z,52.00
2022-08-17T10:32:32.933Z,51.00
2022-08-17T10:35:14.735Z,50.30
2022-08-17T10:37:49.027Z,49.30
2022-08-17T10:40:45.619Z,49.50
2022-08-17T10:43:37.179Z,48.70
2022-08-17T10:46:30.358Z,49.20
2022-08-17T10:49:21.857Z,48.20
2022-08-17T10:52:13.458Z,47.80
2022-08-17T10:54:47.849Z,48.50
2022-08-17T10:57:27.203Z,49.20
2022-08-17T10:59:56.807Z,49.20
2022-08-17T11:02:49.604Z,49.20
2022-08-17T11:05:43.982Z,48.40
2022-08-17T11:08:26.591Z,49.60
2022-08-17T11:11:23.384Z,49.70
2022-08-17T11:14:17.655Z,49.40
2022-08-17T11:16:48.140Z,49.70
2022-08-17T11:19:44.373Z,50.00
2022-08-17T11:22:22.773Z,49.80
2022-08-17T11:24:53.808Z,48.60
2022-08-17T11:27:30.512Z,47.80
2022-08-17T11:30:06.206Z,47.30
2022-08-17T11:32:54.851Z,47.40
2022-08-17T11:35:22.436Z,47.40
2022-08-17T11:38:16.374Z,46.30
2022-08-17T11:41:14.716Z,46.30
2022-08-17T11:43:56.029Z,47.00
2022-08-17T11:47:19.887Z,47.40
2022-08-17T11:50:36.945Z,47.80
2022-08-17T11:53:05.560Z,46.70
2022-08-17T11:55:40.527Z,46.60
2022-08-17T11:58:31.489Z,44.30
2022-08-17T12:01:32.616Z,45.30
2022-08-17T12:04:30.786Z,46.40
2022-08-17T12:07:07.290Z,46.10
2022-08-17T12:09:41.181Z,44.40
2022-08-17T12:12:16.848Z,44.80
2022-08-17T12:15:10.009Z,44.40
2022-08-17T12:17:40.915Z,43.50
2022-08-17T12:20:33.490Z,43.90
2022-08-17T12:23:09.669Z,43.90
2022-08-17T12:25:44.038Z,43.80
2022-08-17T12:28:27.652Z,43.00
2022-08-17T12:31:02.774Z,43.30
2022-08-17T12:33:30.634Z,43.30
2022-08-17T12:36:04.233Z,43.70
2022-08-17T12:38:35.182Z,43.00
2022-08-17T12:41:23.041Z,42.90
2022-08-17T12:44:04.728Z,42.80
2022-08-17T12:46:49.892Z,40.90
2022-08-17T12:49:31.987Z,40.50
2022-08-17T12:52:08.090Z,40.60
2022-08-17T12:55:05.696Z,40.90
2022-08-17T12:57:38.571Z,39.30
2022-08-17T13:00:12.447Z,39.60
2022-08-17T13:03:00.534Z,39.40
2022-08-17T13:05:34.136Z,40.30
2022-08-17T13:08:06.014Z,42.00
2022-08-17T13:10:36.087Z,42.90
2022-08-17T13:13:17.868Z,43.30
2022-08-17T13:15:57.243Z,43.00
2022-08-17T13:18:36.801Z,43.10
2022-08-17T13:21:04.574Z,42.80
2022-08-17T13:23:33.696Z,42.70
2022-08-17T13:26:07.248Z,42.50
2022-08-17T13:28:36.851Z,43.20
2022-08-17T13:31:27.947Z,43.00
2022-08-17T13:34:14.848Z,42.30
2022-08-17T13:36:43.722Z,39.20
2022-08-17T13:39:20.219Z,39.60
2022-08-17T13:41:49.211Z,39.90
2022-08-17T13:44:37.816Z,39.70
2022-08-17T13:47:27.209Z,39.20
2022-08-17T13:49:55.716Z,39.70
2022-08-17T13:52:39.042Z,41.30
2022-08-17T13:55:17.800Z,40.90
2022-08-17T13:58:04.147Z,40.50
2022-08-17T14:00:36.509Z,40.80
2022-08-17T14:03:06.757Z,40.30
2022-08-17T14:05:36.846Z,40.60
2022-08-17T14:08:06.995Z,40.80
2022-08-17T14:10:36.598Z,40.90
2022-08-17T14:13:04.555Z,40.80
2022-08-17T14:15:55.078Z,40.70
2022-08-17T14:18:55.722Z,41.10
2022-08-17T14:21:10.143Z,41.10
2022-08-17T14:23:37.743Z,41.20
2022-08-17T14:26:05.386Z,41.40
2022-08-17T14:28:32.594Z,40.90
2022-08-17T14:31:01.938Z,40.90
2022-08-17T14:33:30.284Z,41.80
2022-08-17T14:35:58.179Z,42.00
2022-08-17T14:38:25.572Z,44.80
2022-08-17T14:40:53.489Z,46.30
2022-08-17T14:43:22.312Z,47.00
2022-08-17T14:45:49.586Z,47.60
2022-08-17T14:48:17.489Z,48.10
2022-08-17T14:50:46.271Z,47.90
2022-08-17T14:53:15.923Z,48.00
2022-08-17T14:55:46.859Z,48.00
2022-08-17T14:58:14.478Z,48.10
2022-08-17T15:00:43.820Z,48.00
2022-08-17T15:03:11.910Z,48.00
2022-08-17T15:05:40.126Z,48.10
2022-08-17T15:08:07.821Z,48.40
2022-08-17T15:10:35.723Z,49.20
2022-08-17T15:13:03.885Z,50.10
2022-08-17T15:15:31.260Z,50.50
2022-08-17T15:18:00.761Z,50.80
2022-08-17T15:20:29.998Z,51.00
2022-08-17T15:22:59.246Z,51.30
2022-08-17T15:25:32.079Z,51.50
2022-08-17T15:28:00.113Z,52.30
2022-08-17T15:30:28.157Z,52.20
2022-08-17T15:32:57.940Z,52.50
2022-08-17T15:35:29.186Z,52.90
2022-08-17T15:38:09.822Z,52.90
2022-08-17T15:40:44.466Z,53.00
2022-08-17T15:43:27.404Z,53.20
2022-08-17T15:46:10.944Z,53.60
2022-08-17T15:48:42.766Z,54.00
2022-08-17T15:51:11.587Z,54.10
2022-08-17T15:53:39.823Z,54.10
2022-08-17T15:56:08.278Z,54.30
2022-08-17T15:58:36.731Z,54.50
2022-08-17T16:01:16.490Z,54.80
2022-08-17T16:04:03.772Z,54.90
2022-08-17T16:06:34.667Z,55.00
2022-08-17T16:09:02.731Z,55.20
2022-08-17T16:11:29.995Z,55.40
2022-08-17T16:13:58.839Z,55.60
2022-08-17T16:16:26.251Z,55.90
2022-08-17T16:18:58.434Z,56.00
2022-08-17T16:21:26.769Z,56.30
2022-08-17T16:23:56.519Z,56.90
2022-08-17T16:26:24.095Z,57.40
2022-08-17T16:28:51.875Z,58.00
2022-08-17T16:31:19.019Z,58.60
2022-08-17T16:34:15.764Z,59.00
2022-08-17T16:36:35.340Z,59.10
2022-08-17T16:39:02.463Z,59.60
2022-08-17T16:41:45.387Z,60.10
2022-08-17T16:44:17.419Z,60.30
2022-08-17T16:46:46.384Z,60.80
2022-08-17T16:49:24.399Z,60.90
2022-08-17T16:52:03.471Z,61.10
2022-08-17T16:54:30.677Z,61.30
2022-08-17T16:56:58.137Z,61.40
2022-08-17T16:59:30.883Z,62.60
2022-08-17T17:02:04.997Z,63.70
2022-08-17T17:04:35.356Z,64.30
2022-08-17T17:07:33.859Z,64.70
2022-08-17T17:10:12.645Z,65.50
2022-08-17T17:13:03.095Z,65.60
2022-08-17T17:15:54.856Z,65.90
2022-08-17T17:18:38.417Z,66.50
2022-08-17T17:21:10.047Z,67.70
2022-08-17T17:23:58.380Z,68.40
2022-08-17T17:26:48.546Z,67.80
2022-08-17T17:29:47.191Z,67.70
2022-08-17T17:32:40.093Z,67.30
2022-08-17T17:35:25.292Z,67.40
2022-08-17T17:37:54.385Z,66.30
2022-08-17T17:40:27.825Z,69.30
2022-08-17T17:43:14.229Z,72.90
2022-08-17T17:45:46.345Z,74.70
2022-08-17T17:48:13.560Z,77.20
2022-08-17T17:52:06.859Z,78.30
2022-08-17T17:54:19.274Z,79.10
2022-08-17T17:56:58.510Z,79.80
2022-08-17T17:59:47.457Z,80.90
2022-08-17T18:02:39.962Z,83.20
2022-08-17T18:05:36.902Z,85.10
2022-08-17T18:08:34.068Z,85.20
2022-08-17T18:11:09.392Z,87.20
2022-08-17T18:13:44.374Z,86.00
2022-08-17T18:16:16.714Z,84.10
2022-08-17T18:18:48.239Z,83.00
2022-08-17T18:21:19.774Z,84.00
2022-08-17T18:23:54.610Z,85.10
2022-08-17T18:26:41.820Z,85.20
2022-08-17T18:29:14.178Z,85.50
2022-08-17T18:31:41.240Z,85.40
2022-08-17T18:37:16.086Z,85.30
2022-08-17T18:39:46.637Z,85.20
2022-08-17T18:42:26.538Z,85.50
2022-08-17T18:44:55.449Z,86.00
2022-08-17T18:47:27.797Z,85.90
2022-08-17T18:50:16.260Z,86.00
2022-08-17T18:52:43.537Z,85.90
2022-08-17T18:55:15.602Z,85.90
2022-08-17T18:58:17.812Z,85.60
2022-08-17T19:00:48.709Z,85.30
2022-08-17T19:03:15.937Z,85.40
2022-08-17T19:06:17.810Z,85.70
2022-08-17T19:08:45.116Z,85.90
2022-08-17T19:11:27.185Z,86.20
2022-08-17T19:14:08.243Z,86.10
2022-08-17T19:16:58.003Z,85.90
2022-08-17T19:19:54.319Z,85.70
2022-08-17T19:23:03.590Z,85.30
2022-08-17T19:25:38.214Z,85.00
2022-08-17T19:28:27.092Z,84.30
2022-08-17T19:31:02.096Z,83.80
2022-08-17T19:33:29.486Z,83.40
2022-08-17T19:36:11.612Z,83.00
2022-08-17T19:39:05.618Z,82.70
2022-08-17T19:42:11.688Z,82.30
2022-08-17T19:45:00.548Z,82.50
2022-08-17T19:47:53.273Z,82.80
2022-08-17T19:50:22.475Z,83.00
2022-08-17T19:53:09.967Z,83.20
2022-08-17T19:55:51.125Z,83.40
2022-08-17T19:58:42.788Z,83.70
2022-08-17T20:01:17.721Z,84.00
2022-08-17T20:03:44.939Z,84.10
2022-08-17T20:06:14.196Z,84.30
2022-08-17T20:08:59.139Z,84.50
2022-08-17T20:11:38.119Z,84.50
2022-08-17T20:14:19.883Z,84.60
2022-08-17T20:16:47.287Z,84.50
2022-08-17T20:19:31.518Z,84.40
2022-08-17T20:22:10.901Z,84.30
2022-08-17T20:25:00.948Z,84.20
2022-08-17T20:27:32.241Z,84.10
2022-08-17T20:30:01.469Z,83.80
2022-08-17T20:32:53.597Z,83.70
2022-08-17T20:35:30.410Z,83.70
2022-08-17T20:38:07.264Z,83.80
2022-08-17T20:40:54.637Z,83.80
2022-08-17T20:43:38.500Z,84.00
2022-08-17T20:46:20.768Z,84.10
2022-08-17T20:48:52.661Z,84.20
2022-08-17T20:52:01.578Z,84.30
2022-08-17T20:54:44.457Z,84.40
2022-08-17T20:57:40.895Z,84.30
2022-08-17T21:00:27.564Z,84.20
2022-08-17T21:03:23.221Z,84.20
2022-08-17T21:06:00.285Z,84.10
2022-08-17T21:08:32.335Z,83.90
2022-08-17T21:11:01.657Z,83.90
2022-08-17T21:13:39.519Z,83.80
2022-08-17T21:16:41.529Z,83.70
2022-08-17T21:19:18.334Z,83.60
2022-08-17T21:22:01.368Z,83.30
2022-08-17T21:25:06.362Z,83.10
2022-08-17T21:27:39.516Z,83.30
2022-08-17T21:30:10.057Z,83.30
2022-08-17T21:32:42.141Z,83.30
2022-08-17T21:35:23.192Z,83.20
2022-08-17T21:37:54.601Z,83.00
2022-08-17T21:40:29.172Z,83.00
2022-08-17T21:43:17.137Z,83.10
2022-08-17T21:45:56.723Z,83.00
2022-08-17T21:48:25.775Z,83.00
2022-08-17T21:51:18.251Z,83.00
2022-08-17T21:54:01.084Z,82.60
2022-08-17T21:56:39.813Z,82.30
2022-08-17T21:59:27.555Z,82.30
2022-08-17T22:02:05.846Z,83.30
2022-08-17T22:04:34.758Z,82.80
2022-08-17T22:07:08.098Z,83.00
2022-08-17T22:09:43.987Z,83.40
2022-08-17T22:12:20.117Z,83.60
2022-08-17T22:14:57.445Z,84.00
2022-08-17T22:17:27.767Z,84.20
2022-08-17T22:19:59.803Z,84.30
2022-08-17T22:23:09.093Z,84.00
2022-08-17T22:25:56.671Z,84.00
2022-08-17T22:28:41.191Z,83.80
2022-08-17T22:31:10.722Z,84.10
2022-08-17T22:33:41.913Z,84.10
2022-08-17T22:36:30.243Z,84.10
2022-08-17T22:39:10.163Z,84.30
2022-08-17T22:41:42.376Z,84.70
2022-08-17T22:44:24.603Z,84.70
2022-08-17T22:47:13.842Z,84.50
2022-08-17T22:49:57.938Z,84.20
2022-08-17T22:52:56.878Z,84.00
2022-08-17T22:55:43.280Z,84.10
2022-08-17T22:58:31.804Z,84.20
2022-08-17T23:01:23.386Z,84.30
2022-08-17T23:04:04.161Z,84.30
2022-08-17T23:06:34.991Z,84.30
2022-08-17T23:09:04.374Z,84.30
2022-08-17T23:11:48.920Z,84.30
2022-08-17T23:14:19.998Z,84.50
2022-08-17T23:16:49.086Z,84.70
2022-08-17T23:19:20.761Z,84.80
2022-08-17T23:21:49.229Z,84.80
2022-08-17T23:24:22.662Z,84.70
2022-08-17T23:26:50.083Z,84.70
2022-08-17T23:29:17.363Z,84.70
2022-08-17T23:31:44.531Z,84.70
2022-08-17T23:34:13.816Z,84.80
2022-08-17T23:36:41.241Z,84.90
2022-08-17T23:39:08.544Z,84.80
2022-08-17T23:41:39.127Z,84.80
2022-08-17T23:44:07.206Z,84.90
2022-08-17T23:46:34.757Z,85.10
2022-08-17T23:49:03.277Z,85.30
2022-08-17T23:51:38.435Z,85.40
2022-08-17T23:54:11.817Z,85.50
2022-08-17T23:56:48.791Z,85.70
2022-08-17T23:59:17.927Z,86.00
